Time,TemperatureF,DewpointF,PressureIn,WindDirection,WindDirectionDegrees,WindSpeedMPH,WindSpeedGustMPH,Humidity,HourlyPrecipIn,Conditions,Clouds,dailyrainin,SoftwareType,DateUTC
2013-07-04 00:04:00,70.0,58.0,29.92,SSW,198,0.0,0.0,65,0.00,,,0.00,weatherlink.com 1.10,2013-07-04 05:04:00,
2013-07-04 00:19:00,69.2,58.0,29.92,South,188,0.0,0.0,67,0.00,,,0.00,weatherlink.com 1.10,2013-07-04 05:19:00,
2013-07-04 00:34:00,68.2,58.0,29.92,SSW,203,0.0,0.0,69,0.00,,,0.00,weatherlink.com 1.10,2013-07-04 05:34:00,
2013-07-04 00:49:00,67.6,58.0,29.92,South,178,0.0,0.0,71,0.00,,,0.00,weatherlink.com 1.10,2013-07-04 05:49:00,
2013-07-04 01:04:00,67.2,57.0,29.92,South,186,0.0,0.0,71,0.00,,,0.00,weatherlink.com 1.10,2013-07-04 06:04:00,
2013-07-04 01:19:00,67.2,57.0,29.92,SSW,205,0.0,0.0,70,0.00,,,0.00,weatherlink.com 1.10,2013-07-04 06:19:00,
2013-07-04 01:34:00,67.2,57.0,29.91,SSW,196,0.0,0.0,70,0.00,,,0.00,weatherlink.com 1.10,2013-07-04 06:34:00,
2013-07-04 01:49:00,67.0,57.0,29.91,South,182,0.0,0.0,71,0.00,,,0.00,weatherlink.com 1.10,2013-07-04 06:49:00,
2013-07-04 02:04:00,66.9,57.0,29.91,SSW,206,0.0,0.0,71,0.00,,,0.00,weatherlink.com 1.10,2013-07-04 07:04:00,
2013-07-04 02:19:00,66.7,57.0,29.91,SSW,194,0.0,0.0,71,0.00,,,0.00,weatherlink.com 1.10,2013-07-04 07:19:00,
2013-07-04 02:34:00,66.1,57.0,29.91,South,182,0.0,0.0,73,0.00,,,0.00,weatherlink.com 1.10,2013-07-04 07:34:00,
2013-07-04 02:49:00,65.3,57.0,29.91,South,186,0.0,0.0,75,0.00,,,0.00,weatherlink.com 1.10,2013-07-04 07:49:00,
2013-07-04 03:04:00,64.4,57.0,29.91,South,182,0.0,0.0,78,0.00,,,0.00,weatherlink.com 1.10,2013-07-04 08:04:00,
2013-07-04 03:19:00,64.1,57.0,29.91,South,187,0.0,0.0,78,0.00,,,0.00,weatherlink.com 1.10,2013-07-04 08:19:00,
2013-07-04 03:34:00,64.0,57.0,29.91,South,181,0.0,0.0,79,0.00,,,0.00,weatherlink.com 1.10,2013-07-04 08:34:00,
2013-07-04 03:50:00,63.8,58.0,29.91,SSW,194,0.0,0.0,80,0.00,,,0.00,weatherlink.com 1.10,2013-07-04 08:50:00,
2013-07-04 04:05:00,63.9,58.0,29.91,South,188,0.0,0.0,81,0.00,,,0.00,weatherlink.com 1.10,2013-07-04 09:05:00,
2013-07-04 04:20:00,63.9,58.0,29.91,South,181,0.0,0.0,81,0.00,,,0.00,weatherlink.com 1.10,2013-07-04 09:20:00,
2013-07-04 04:35:00,63.9,58.0,29.91,SSW,201,0.0,0.0,81,0.00,,,0.00,weatherlink.com 1.10,2013-07-04 09:35:00,
2013-07-04 04:50:00,63.5,58.0,29.91,SSW,196,0.0,0.0,83,0.00,,,0.00,weatherlink.com 1.10,2013-07-04 09:50:00,
2013-07-04 05:05:00,63.5,58.0,29.91,SSW,198,0.0,0.0,83,0.00,,,0.00,weatherlink.com 1.10,2013-07-04 10:05:00,
2013-07-04 05:20:00,63.2,58.0,29.91,South,173,0.0,0.0,84,0.00,,,0.00,weatherlink.com 1.10,2013-07-04 10:20:00,
2013-07-04 05:35:00,63.0,59.0,29.91,SSW,198,0.0,0.0,85,0.00,,,0.00,weatherlink.com 1.10,2013-07-04 10:35:00,
2013-07-04 05:50:00,62.9,58.0,29.91,South,179,0.0,0.0,85,0.00,,,0.00,weatherlink.com 1.10,2013-07-04 10:50:00,
2013-07-04 06:05:00,63.5,59.0,29.91,SSW,192,0.0,0.0,84,0.00,,,0.00,weatherlink.com 1.10,2013-07-04 11:05:00,
2013-07-04 06:20:00,63.5,59.0,29.91,South,186,0.0,0.0,84,0.00,,,0.00,weatherlink.com 1.10,2013-07-04 11:20:00,
2013-07-04 06:35:00,63.6,58.0,29.91,SE,140,0.0,0.0,83,0.00,,,0.00,weatherlink.com 1.10,2013-07-04 11:35:00,
2013-07-04 06:50:00,64.1,59.0,29.92,SSW,194,0.0,0.0,83,0.00,,,0.00,weatherlink.com 1.10,2013-07-04 11:50:00,
2013-07-04 07:05:00,64.9,59.0,29.92,SSW,193,0.0,0.0,81,0.00,,,0.00,weatherlink.com 1.10,2013-07-04 12:05:00,
2013-07-04 07:20:00,65.6,59.0,29.92,SSW,209,0.0,0.0,79,0.00,,,0.00,weatherlink.com 1.10,2013-07-04 12:20:00,
2013-07-04 07:35:00,66.3,59.0,29.92,South,191,0.0,0.0,77,0.00,,,0.00,weatherlink.com 1.10,2013-07-04 12:35:00,
2013-07-04 07:50:00,67.2,59.0,29.93,South,169,0.0,0.0,75,0.00,,,0.00,weatherlink.com 1.10,2013-07-04 12:50:00,
2013-07-04 08:05:00,68.3,59.0,29.93,SSW,197,0.0,0.0,72,0.00,,,0.00,weatherlink.com 1.10,2013-07-04 13:05:00,
2013-07-04 08:20:00,69.3,59.0,29.92,South,175,0.0,0.0,70,0.00,,,0.00,weatherlink.com 1.10,2013-07-04 13:20:00,
2013-07-04 08:35:00,70.3,59.0,29.92,SSW,194,0.0,0.0,67,0.00,,,0.00,weatherlink.com 1.10,2013-07-04 13:35:00,
2013-07-04 08:50:00,71.1,59.0,29.93,SSW,198,0.0,0.0,65,0.00,,,0.00,weatherlink.com 1.10,2013-07-04 13:50:00,
2013-07-04 09:05:00,71.8,58.0,29.92,SSW,194,0.0,0.0,63,0.00,,,0.00,weatherlink.com 1.10,2013-07-04 14:05:00,
2013-07-04 09:20:00,73.2,59.0,29.92,SSW,207,0.0,0.0,62,0.00,,,0.00,weatherlink.com 1.10,2013-07-04 14:20:00,
2013-07-04 09:35:00,74.4,59.0,29.92,South,189,0.0,0.0,58,0.00,,,0.00,weatherlink.com 1.10,2013-07-04 14:35:00,
2013-07-04 09:50:00,75.5,58.0,29.92,SSW,207,0.0,0.0,55,0.00,,,0.00,weatherlink.com 1.10,2013-07-04 14:50:00,
2013-07-04 10:05:00,76.3,58.0,29.91,SW,218,0.0,0.0,54,0.00,,,0.00,weatherlink.com 1.10,2013-07-04 15:05:00,
2013-07-04 10:20:00,77.2,60.0,29.91,SSW,193,0.0,0.0,56,0.00,,,0.00,weatherlink.com 1.10,2013-07-04 15:20:00,
2013-07-04 10:35:00,78.0,60.0,29.91,South,189,0.0,0.0,54,0.00,,,0.00,weatherlink.com 1.10,2013-07-04 15:35:00,
2013-07-04 10:50:00,78.7,59.0,29.91,SSW,194,0.0,0.0,51,0.00,,,0.00,weatherlink.com 1.10,2013-07-04 15:50:00,
2013-07-04 11:05:00,79.5,59.0,29.90,SSW,204,0.0,0.0,50,0.00,,,0.00,weatherlink.com 1.10,2013-07-04 16:05:00,
2013-07-04 11:20:00,79.9,59.0,29.91,South,173,0.0,0.0,49,0.00,,,0.00,weatherlink.com 1.10,2013-07-04 16:20:00,
2013-07-04 11:36:00,80.7,59.0,29.91,SSW,213,0.0,0.0,48,0.00,,,0.00,weatherlink.com 1.10,2013-07-04 16:36:00,
2013-07-04 11:51:00,81.8,58.0,29.90,SSE,166,0.0,0.0,45,0.00,,,0.00,weatherlink.com 1.10,2013-07-04 16:51:00,
2013-07-04 12:06:00,82.2,59.0,29.90,SW,233,0.0,0.0,45,0.00,,,0.00,weatherlink.com 1.10,2013-07-04 17:06:00,
2013-07-04 12:21:00,82.9,58.0,29.90,SSW,211,0.0,0.0,43,0.00,,,0.00,weatherlink.com 1.10,2013-07-04 17:21:00,
2013-07-04 12:36:00,83.6,59.0,29.89,SSW,203,0.0,0.0,43,0.00,,,0.00,weatherlink.com 1.10,2013-07-04 17:36:00,
2013-07-04 12:51:00,83.9,56.0,29.88,SW,222,0.0,0.0,39,0.00,,,0.00,weatherlink.com 1.10,2013-07-04 17:51:00,
2013-07-04 13:06:00,84.4,56.0,29.88,SW,220,0.0,0.0,38,0.00,,,0.00,weatherlink.com 1.10,2013-07-04 18:06:00,
2013-07-04 13:21:00,85.0,54.0,29.88,SSW,195,0.0,0.0,34,0.00,,,0.00,weatherlink.com 1.10,2013-07-04 18:21:00,
2013-07-04 13:36:00,85.2,55.0,29.87,SSW,206,0.0,0.0,36,0.00,,,0.00,weatherlink.com 1.10,2013-07-04 18:36:00,
2013-07-04 13:51:00,85.5,55.0,29.87,South,169,0.0,0.0,35,0.00,,,0.00,weatherlink.com 1.10,2013-07-04 18:51:00,
2013-07-04 14:06:00,84.8,55.0,29.87,SW,229,0.0,0.0,36,0.00,,,0.00,weatherlink.com 1.10,2013-07-04 19:06:00,
2013-07-04 14:21:00,85.9,56.0,29.87,SSW,210,0.0,0.0,36,0.00,,,0.00,weatherlink.com 1.10,2013-07-04 19:21:00,
2013-07-04 14:36:00,85.9,54.0,29.87,SSW,201,0.0,0.0,34,0.00,,,0.00,weatherlink.com 1.10,2013-07-04 19:36:00,
2013-07-04 14:51:00,86.3,56.0,29.86,SSW,197,0.0,0.0,36,0.00,,,0.00,weatherlink.com 1.10,2013-07-04 19:51:00,
2013-07-04 15:06:00,86.0,55.0,29.87,SSW,209,0.0,0.0,35,0.00,,,0.00,weatherlink.com 1.10,2013-07-04 20:06:00,
2013-07-04 15:21:00,85.1,55.0,29.86,SSW,199,0.0,0.0,35,0.00,,,0.00,weatherlink.com 1.10,2013-07-04 20:21:00,
2013-07-04 15:36:00,85.7,55.0,29.86,South,186,0.0,0.0,35,0.00,,,0.00,weatherlink.com 1.10,2013-07-04 20:36:00,
2013-07-04 15:51:00,85.8,54.0,29.86,SSW,199,0.0,0.0,34,0.00,,,0.00,weatherlink.com 1.10,2013-07-04 20:51:00,
2013-07-04 16:06:00,86.3,54.0,29.86,SSW,207,0.0,0.0,33,0.00,,,0.00,weatherlink.com 1.10,2013-07-04 21:06:00,
2013-07-04 16:21:00,86.6,54.0,29.86,SSW,194,0.0,0.0,33,0.00,,,0.00,weatherlink.com 1.10,2013-07-04 21:21:00,
2013-07-04 16:36:00,85.8,54.0,29.86,South,182,0.0,0.0,33,0.00,,,0.00,weatherlink.com 1.10,2013-07-04 21:36:00,
2013-07-04 16:51:00,85.8,54.0,29.86,SSW,195,0.0,0.0,33,0.00,,,0.00,weatherlink.com 1.10,2013-07-04 21:51:00,
2013-07-04 17:06:00,86.3,55.0,29.86,ESE,118,0.0,0.0,34,0.00,,,0.00,weatherlink.com 1.10,2013-07-04 22:06:00,
2013-07-04 17:21:00,86.0,55.0,29.85,SSW,205,0.0,0.0,34,0.00,,,0.00,weatherlink.com 1.10,2013-07-04 22:21:00,
2013-07-04 17:36:00,85.8,55.0,29.85,South,169,0.0,0.0,35,0.00,,,0.00,weatherlink.com 1.10,2013-07-04 22:36:00,
2013-07-04 17:51:00,85.7,54.0,29.85,SSW,197,0.0,0.0,34,0.00,,,0.00,weatherlink.com 1.10,2013-07-04 22:51:00,
2013-07-04 18:06:00,85.6,53.0,29.84,SSW,195,0.0,0.0,33,0.00,,,0.00,weatherlink.com 1.10,2013-07-04 23:06:00,
2013-07-04 18:21:00,85.0,53.0,29.84,SSW,198,0.0,0.0,33,0.00,,,0.00,weatherlink.com 1.10,2013-07-04 23:21:00,
2013-07-04 18:36:00,85.0,54.0,29.84,SW,214,0.0,0.0,34,0.00,,,0.00,weatherlink.com 1.10,2013-07-04 23:36:00,
2013-07-04 18:51:00,84.6,54.0,29.84,SSW,206,0.0,0.0,35,0.00,,,0.00,weatherlink.com 1.10,2013-07-04 23:51:00,
2013-07-04 19:06:00,84.2,54.0,29.84,South,188,0.0,0.0,36,0.00,,,0.00,weatherlink.com 1.10,2013-07-05 00:06:00,
2013-07-04 19:21:00,83.7,54.0,29.84,SSW,202,0.0,0.0,36,0.00,,,0.00,weatherlink.com 1.10,2013-07-05 00:21:00,
2013-07-04 19:36:00,83.0,54.0,29.84,SSW,192,0.0,0.0,37,0.00,,,0.00,weatherlink.com 1.10,2013-07-05 00:36:00,
2013-07-04 19:51:00,82.7,55.0,29.84,SSW,201,0.0,0.0,38,0.00,,,0.00,weatherlink.com 1.10,2013-07-05 00:51:00,
2013-07-04 20:06:00,81.6,55.0,29.84,SSW,211,0.0,0.0,40,0.00,,,0.00,weatherlink.com 1.10,2013-07-05 01:06:00,
2013-07-04 20:21:00,80.7,55.0,29.84,SSW,209,0.0,0.0,41,0.00,,,0.00,weatherlink.com 1.10,2013-07-05 01:21:00,
2013-07-04 20:36:00,80.1,55.0,29.84,SSW,198,0.0,0.0,42,0.00,,,0.00,weatherlink.com 1.10,2013-07-05 01:36:00,
2013-07-04 20:51:00,79.4,55.0,29.84,South,180,0.0,0.0,43,0.00,,,0.00,weatherlink.com 1.10,2013-07-05 01:51:00,
2013-07-04 21:06:00,78.6,55.0,29.84,SSW,211,0.0,0.0,44,0.00,,,0.00,weatherlink.com 1.10,2013-07-05 02:06:00,
2013-07-04 21:21:00,78.0,55.0,29.84,SSW,208,0.0,0.0,45,0.00,,,0.00,weatherlink.com 1.10,2013-07-05 02:21:00,
2013-07-04 21:36:00,77.2,55.0,29.84,SSW,197,0.0,0.0,47,0.00,,,0.00,weatherlink.com 1.10,2013-07-05 02:36:00,
2013-07-04 21:51:00,76.4,56.0,29.85,SSW,198,0.0,0.0,49,0.00,,,0.00,weatherlink.com 1.10,2013-07-05 02:51:00,
2013-07-04 22:06:00,75.8,56.0,29.85,South,191,0.0,0.0,51,0.00,,,0.00,weatherlink.com 1.10,2013-07-05 03:06:00,
2013-07-04 22:21:00,75.2,56.0,29.86,SSW,192,0.0,0.0,52,0.00,,,0.00,weatherlink.com 1.10,2013-07-05 03:21:00,
2013-07-04 22:36:00,74.7,57.0,29.86,South,174,0.0,0.0,54,0.00,,,0.00,weatherlink.com 1.10,2013-07-05 03:36:00,
2013-07-04 22:51:00,73.6,57.0,29.86,South,173,0.0,0.0,57,0.00,,,0.00,weatherlink.com 1.10,2013-07-05 03:51:00,
2013-07-04 23:06:00,73.2,57.0,29.86,South,176,0.0,0.0,58,0.00,,,0.00,weatherlink.com 1.10,2013-07-05 04:06:00,
2013-07-04 23:21:00,72.9,58.0,29.86,SSW,195,0.0,0.0,59,0.00,,,0.00,weatherlink.com 1.10,2013-07-05 04:21:00,
2013-07-04 23:36:00,72.9,58.0,29.86,South,186,0.0,0.0,59,0.00,,,0.00,weatherlink.com 1.10,2013-07-05 04:36:00,
2013-07-04 23:51:00,72.7,58.0,29.86,SE,145,0.0,0.0,60,0.00,,,0.00,weatherlink.com 1.10,2013-07-05 04:51:00,